Time;durP1;ratioP1;P1;durP2;ratioP2;P2;SDS_P1;SDS_P2;PMS_P1;PMS_P2;Temp;Humidity;BMP_temperature;BMP_pressure;BME280_temperature;BME280_humidity;BME280_pressure;Samples;Min_cycle;Max_cycle;Signal;HPM_P1;HPM_P2
2022/02/09 00:02:01;;;;;;;0.60;0.60;;;8.30;97.70;;;;;;4982605;28;20364;-71
2022/02/09 00:04:39;;;;;;;0.45;0.45;;;8.20;97.70;;;;;;4991626;28;20441;-71
2022/02/09 00:07:09;;;;;;;0.52;0.52;;;8.30;97.70;;;;;;4990468;28;20037;-71
2022/02/09 00:09:36;;;;;;;0.75;0.75;;;8.30;97.70;;;;;;4993512;28;20099;-70
2022/02/09 00:12:07;;;;;;;0.90;0.85;;;8.20;97.70;;;;;;4992920;28;20034;-71
2022/02/09 00:23:24;;;;;;;0.75;0.75;;;8.20;97.60;;;;;;4973161;28;20034;-71
2022/02/09 00:30:55;;;;;;;0.22;0.22;;;8.20;97.60;;;;;;4990376;28;20046;-70
2022/02/09 00:39:04;;;;;;;0.43;0.43;;;8.20;97.50;;;;;;4986836;28;20063;-71
2022/02/09 00:41:44;;;;;;;0.70;0.70;;;8.20;97.50;;;;;;4982155;28;20023;-70
2022/02/09 01:39:04;;;;;;;0.95;0.82;;;8.10;97.30;;;;;;4986006;28;20375;-71
2022/02/09 01:57:51;;;;;;;0.22;0.22;;;8.10;97.10;;;;;;4993454;28;20029;-71
2022/02/09 02:00:17;;;;;;;1.95;1.27;;;8.00;97.10;;;;;;4992711;28;20018;-71
2022/02/09 02:02:43;;;;;;;0.43;0.43;;;8.10;96.90;;;;;;4995325;28;20037;-71
2022/02/09 02:05:08;;;;;;;0.35;0.35;;;8.10;96.90;;;;;;4991693;28;20034;-71
2022/02/09 02:07:47;;;;;;;0.80;0.80;;;8.10;96.80;;;;;;4989471;28;20037;-71
2022/02/09 02:10:14;;;;;;;2.05;1.63;;;8.10;96.80;;;;;;4994720;28;20022;-71
2022/02/09 02:13:12;;;;;;;2.55;1.08;;;8.00;96.80;;;;;;4994200;28;20022;-71
2022/02/09 02:18:34;;;;;;;1.15;1.05;;;8.00;96.80;;;;;;4970726;28;20042;-71
2022/02/09 02:21:17;;;;;;;0.75;0.75;;;8.00;96.90;;;;;;4990757;28;20443;-70
2022/02/09 02:32:20;;;;;;;0.52;0.52;;;8.00;97.10;;;;;;4993294;28;20153;-70
2022/02/09 02:40:37;;;;;;;1.02;1.00;;;7.80;97.30;;;;;;5000806;28;20091;-70
2022/02/09 02:43:37;;;;;;;0.95;0.93;;;7.90;97.30;;;;;;4998534;28;20092;-71
2022/02/09 02:57:03;;;;;;;0.20;0.20;;;7.80;97.50;;;;;;5002360;28;20533;-71
2022/02/09 02:59:42;;;;;;;1.17;0.82;;;7.80;97.50;;;;;;4995165;28;20022;-71
2022/02/09 03:13:11;;;;;;;1.27;1.17;;;7.80;97.40;;;;;;5007691;28;20349;-71
2022/02/09 03:15:46;;;;;;;0.77;0.77;;;7.80;97.40;;;;;;4996503;28;20034;-70
2022/02/09 03:20:56;;;;;;;1.15;1.08;;;7.80;97.30;;;;;;5001547;28;20061;-70
2022/02/09 03:47:34;;;;;;;1.40;1.02;;;7.70;97.00;;;;;;4996978;28;20371;-71
2022/02/09 03:55:22;;;;;;;7.43;1.65;;;7.70;97.00;;;;;;5001359;28;20027;-70
2022/02/09 03:57:47;;;;;;;0.70;0.70;;;7.70;97.00;;;;;;4992310;28;20025;-71
2022/02/09 04:00:14;;;;;;;4.82;1.25;;;7.70;96.90;;;;;;5003922;28;20030;-70
2022/02/09 04:02:43;;;;;;;2.33;1.88;;;7.70;96.90;;;;;;4992139;28;20488;-70
2022/02/09 04:05:08;;;;;;;1.00;0.60;;;7.80;96.80;;;;;;4986010;28;20015;-70
2022/02/09 04:07:34;;;;;;;1.50;1.05;;;7.70;96.70;;;;;;4994316;28;20035;-70
2022/02/09 04:10:01;;;;;;;1.67;1.48;;;7.80;96.60;;;;;;4994546;28;20034;-70
2022/02/09 04:12:40;;;;;;;3.47;1.55;;;7.80;96.40;;;;;;4990710;28;20030;-70
2022/02/09 04:17:47;;;;;;;0.47;0.47;;;7.80;96.20;;;;;;4998653;28;20045;-70
2022/02/09 04:36:05;;;;;;;2.20;1.45;;;7.80;96.10;;;;;;4992694;28;20148;-71
2022/02/09 04:39:22;;;;;;;0.57;0.57;;;7.70;96.10;;;;;;4992178;28;20522;-71
2022/02/09 04:42:02;;;;;;;0.35;0.35;;;7.80;96.10;;;;;;4998621;28;20637;-71
2022/02/09 04:44:43;;;;;;;0.10;0.10;;;7.70;96.10;;;;;;4993775;28;20465;-71
2022/02/09 04:47:25;;;;;;;1.05;1.02;;;7.60;96.10;;;;;;4992749;28;20022;-70
2022/02/09 04:50:01;;;;;;;1.10;1.10;;;7.70;96.10;;;;;;4993142;28;20109;-71
2022/02/09 05:24:17;;;;;;;1.83;1.23;;;7.70;95.70;;;;;;4987026;28;20382;-71
2022/02/09 05:29:34;;;;;;;0.20;0.20;;;7.70;95.40;;;;;;4979773;28;20114;-72
2022/02/09 05:31:59;;;;;;;0.73;0.73;;;7.70;95.30;;;;;;4988299;28;20133;-73
2022/02/09 05:34:25;;;;;;;1.08;0.98;;;7.80;95.20;;;;;;4984796;28;20073;-73
2022/02/09 05:36:50;;;;;;;0.55;0.55;;;7.70;95.20;;;;;;4976462;28;20037;-73
2022/02/09 05:39:16;;;;;;;0.55;0.55;;;7.80;94.90;;;;;;4987702;28;20053;-72
2022/02/09 05:41:44;;;;;;;2.05;1.08;;;7.80;94.80;;;;;;4990910;28;20030;-73
2022/02/09 05:44:12;;;;;;;0.68;0.65;;;7.80;94.70;;;;;;4995195;28;20427;-73
2022/02/09 05:49:44;;;;;;;1.27;0.52;;;7.80;94.70;;;;;;4990991;28;22709;-73
2022/02/09 05:52:01;;;;;;;0.82;0.65;;;7.70;94.70;;;;;;4983791;28;20125;-73
2022/02/09 05:59:59;;;;;;;0.52;0.52;;;7.80;94.50;;;;;;4977361;28;20046;-73
2022/02/09 06:02:24;;;;;;;1.98;1.83;;;7.80;94.50;;;;;;4987406;28;20037;-73
2022/02/09 06:04:50;;;;;;;2.80;0.63;;;7.80;94.40;;;;;;4991408;28;20529;-73
2022/02/09 06:07:20;;;;;;;1.05;0.98;;;7.80;94.40;;;;;;4989814;28;20033;-73
2022/02/09 06:09:45;;;;;;;0.35;0.35;;;7.70;94.30;;;;;;5003821;28;20363;-73
2022/02/09 06:12:22;;;;;;;28.50;15.32;;;7.70;94.40;;;;;;4989309;28;20049;-73
2022/02/09 06:20:17;;;;;;;23.75;13.18;;;7.70;94.30;;;;;;4981364;28;20085;-72
2022/02/09 06:22:43;;;;;;;23.92;12.93;;;7.80;94.20;;;;;;4976474;28;20034;-73
2022/02/09 06:25:09;;;;;;;23.10;14.95;;;7.70;94.20;;;;;;4985623;28;20517;-73
2022/02/09 06:27:34;;;;;;;21.60;13.30;;;7.70;94.20;;;;;;4982076;28;20097;-73
2022/02/09 06:30:00;;;;;;;22.05;13.50;;;7.70;94.30;;;;;;4981971;28;20232;-73
2022/02/09 06:32:27;;;;;;;22.20;13.52;;;7.70;94.30;;;;;;4975827;28;20042;-74
2022/02/09 06:34:53;;;;;;;21.08;12.05;;;7.70;94.20;;;;;;4998560;28;20069;-74
2022/02/09 06:37:25;;;;;;;20.45;12.48;;;7.70;94.20;;;;;;4984709;28;20030;-74
2022/02/09 06:39:58;;;;;;;20.05;13.35;;;7.70;94.10;;;;;;4995778;28;20425;-74
2022/02/09 06:42:25;;;;;;;20.95;13.80;;;7.70;94.10;;;;;;4986845;28;20121;-74
2022/02/09 06:44:53;;;;;;;21.83;12.80;;;7.70;94.10;;;;;;4977408;28;20034;-74
2022/02/09 06:47:23;;;;;;;18.77;11.63;;;7.70;94.10;;;;;;4974883;28;20105;-74
2022/02/09 06:49:59;;;;;;;22.42;13.73;;;7.70;94.00;;;;;;4988191;28;20470;-74
2022/02/09 06:52:25;;;;;;;21.48;13.40;;;7.70;93.90;;;;;;4986921;28;20085;-74
2022/02/09 06:57:57;;;;;;;21.52;13.02;;;7.60;94.00;;;;;;4984153;28;20166;-73
2022/02/09 07:00:23;;;;;;;18.92;12.27;;;7.60;94.10;;;;;;4985036;28;20109;-74
2022/02/09 07:02:50;;;;;;;22.17;13.38;;;7.60;94.20;;;;;;4983771;28;20030;-74
2022/02/09 07:05:16;;;;;;;19.70;12.25;;;7.60;94.20;;;;;;5001824;28;20157;-74
2022/02/09 07:07:42;;;;;;;20.08;12.68;;;7.60;94.20;;;;;;4987976;28;20030;-74
2022/02/09 07:10:10;;;;;;;18.67;11.75;;;7.60;94.20;;;;;;4985360;28;20030;-74
2022/02/09 07:12:35;;;;;;;21.13;13.00;;;7.60;94.20;;;;;;4985718;28;20027;-74
2022/02/09 07:15:02;;;;;;;19.90;12.18;;;7.50;94.20;;;;;;4984644;28;20050;-74
2022/02/09 07:17:28;;;;;;;18.98;11.32;;;7.50;94.30;;;;;;4979876;28;20397;-74
2022/02/09 07:19:58;;;;;;;20.25;12.07;;;7.50;94.20;;;;;;4996984;28;20027;-74
2022/02/09 07:22:26;;;;;;;19.92;12.55;;;7.50;94.20;;;;;;4977833;28;20022;-74
2022/02/09 07:25:02;;;;;;;21.13;12.05;;;7.50;94.20;;;;;;4997414;28;20349;-74
2022/02/09 07:27:49;;;;;;;18.00;12.30;;;7.50;94.10;;;;;;4983145;28;20487;-74
2022/02/09 07:30:16;;;;;;;17.20;11.27;;;7.60;93.90;;;;;;4996635;28;20030;-73
2022/02/09 07:32:42;;;;;;;24.85;11.75;;;7.50;93.90;;;;;;4997314;28;20417;-73
2022/02/09 07:35:07;;;;;;;20.70;12.13;;;7.60;93.80;;;;;;4994260;28;20046;-73
2022/02/09 07:37:33;;;;;;;13.70;9.13;;;7.60;93.70;;;;;;4984754;28;20058;-73
2022/02/09 07:40:00;;;;;;;19.02;10.68;;;7.60;93.50;;;;;;4996795;28;20054;-74
2022/02/09 07:42:28;;;;;;;19.60;11.50;;;7.70;93.00;;;;;;5004105;28;20092;-74
2022/02/09 07:47:43;;;;;;;15.45;10.07;;;7.70;92.80;;;;;;4989584;28;20037;-74
2022/02/09 07:50:29;;;;;;;14.55;9.73;;;7.80;92.60;;;;;;4989877;28;20096;-74
2022/02/09 07:53:47;;;;;;;15.68;8.68;;;7.80;92.40;;;;;;4992646;28;20678;-76
2022/02/09 07:55:41;;;;;;;12.10;7.70;;;7.80;91.90;;;;;;4988947;28;20133;-75
2022/02/09 07:58:07;;;;;;;15.32;8.95;;;7.80;92.00;;;;;;4990218;28;20157;-75
2022/02/09 08:00:33;;;;;;;14.65;8.55;;;7.80;92.00;;;;;;4994683;28;20034;-74
2022/02/09 08:02:59;;;;;;;13.55;9.35;;;7.80;92.30;;;;;;5002016;28;20026;-74
2022/02/09 08:05:25;;;;;;;14.10;7.97;;;7.80;92.30;;;;;;4994553;28;20056;-75
2022/02/09 08:07:53;;;;;;;14.00;7.82;;;7.80;92.00;;;;;;4992456;28;20037;-75
2022/02/09 08:10:26;;;;;;;12.32;8.18;;;7.90;91.80;;;;;;4984084;28;20029;-75
2022/02/09 08:26:47;;;;;;;11.35;7.82;;;8.00;91.10;;;;;;4994025;28;20023;-73
2022/02/09 08:29:24;;;;;;;10.50;7.45;;;8.00;90.80;;;;;;4984302;28;20025;-72
2022/02/09 08:34:27;;;;;;;12.95;8.13;;;8.00;91.30;;;;;;4987612;28;20072;-73
2022/02/09 08:36:54;;;;;;;13.18;7.97;;;8.00;91.10;;;;;;4993392;28;20351;-73
2022/02/09 08:39:20;;;;;;;10.00;7.20;;;8.10;91.20;;;;;;4990812;28;20374;-73
2022/02/09 08:41:46;;;;;;;14.85;8.45;;;8.10;91.00;;;;;;4977161;28;20042;-73
2022/02/09 08:44:12;;;;;;;11.52;7.45;;;8.10;90.90;;;;;;4988282;28;20426;-73
2022/02/09 08:46:40;;;;;;;10.88;7.47;;;8.10;90.90;;;;;;4990732;28;20569;-73
2022/02/09 08:49:05;;;;;;;12.82;7.80;;;8.20;90.50;;;;;;4990295;28;20058;-73
2022/02/09 08:51:33;;;;;;;11.88;7.75;;;8.30;90.50;;;;;;4987002;28;20149;-73
2022/02/09 08:53:59;;;;;;;11.95;7.60;;;8.30;90.40;;;;;;4989231;28;20049;-73
2022/02/09 08:56:27;;;;;;;14.15;8.60;;;8.20;90.40;;;;;;4987018;28;20022;-73
2022/02/09 08:58:53;;;;;;;11.65;7.65;;;8.30;90.60;;;;;;4991096;28;20026;-73
2022/02/09 09:01:29;;;;;;;10.57;8.02;;;8.30;90.30;;;;;;5001056;28;20021;-73
2022/02/09 09:03:57;;;;;;;11.77;8.52;;;8.30;90.50;;;;;;4988917;28;20030;-73
2022/02/09 09:06:26;;;;;;;14.18;8.57;;;8.40;90.50;;;;;;4989804;28;20097;-74
2022/02/09 09:25:16;;;;;;;11.55;7.47;;;8.60;89.90;;;;;;4987464;28;20465;-74
2022/02/09 09:40:41;;;;;;;11.95;7.53;;;8.80;89.20;;;;;;4981128;28;20429;-76
2022/02/09 10:33:58;;;;;;;8.88;5.10;;;9.20;86.70;;;;;;4988451;28;20038;-74
2022/02/09 10:36:24;;;;;;;7.38;5.18;;;9.10;86.90;;;;;;4992832;28;20331;-74
2022/02/09 10:39:05;;;;;;;8.35;5.55;;;9.10;87.40;;;;;;4986048;28;20042;-73
2022/02/09 10:41:37;;;;;;;8.57;5.35;;;9.10;87.20;;;;;;4980376;28;20335;-74
2022/02/09 10:44:11;;;;;;;7.13;5.00;;;9.10;87.50;;;;;;4984006;28;20041;-73
2022/02/09 10:46:57;;;;;;;6.65;4.80;;;9.10;87.30;;;;;;4977800;28;20422;-74
2022/02/09 10:49:29;;;;;;;7.57;5.32;;;9.10;87.40;;;;;;4995627;28;20426;-74
2022/02/09 10:54:27;;;;;;;10.40;5.45;;;9.20;87.00;;;;;;4986879;28;20022;-74
2022/02/09 10:57:02;;;;;;;6.60;4.80;;;9.20;87.00;;;;;;4987218;28;20030;-73
2022/02/09 10:59:31;;;;;;;7.18;5.18;;;9.20;87.00;;;;;;4989952;28;20529;-74
2022/02/09 11:02:00;;;;;;;9.00;4.43;;;9.30;87.00;;;;;;4994292;28;20019;-74
2022/02/09 11:04:27;;;;;;;7.25;4.40;;;9.30;86.40;;;;;;4994945;28;20022;-74
2022/02/09 11:06:53;;;;;;;7.60;4.90;;;9.30;86.60;;;;;;4987314;28;20385;-74
2022/02/09 11:09:20;;;;;;;7.53;4.53;;;9.40;86.30;;;;;;4992749;28;20028;-74
2022/02/09 11:11:47;;;;;;;6.95;4.55;;;9.40;86.90;;;;;;4992223;28;20085;-74
2022/02/09 11:14:18;;;;;;;9.90;4.90;;;9.30;86.90;;;;;;4992167;28;20029;-74
2022/02/09 11:16:53;;;;;;;7.30;4.47;;;9.30;86.90;;;;;;4991470;28;20446;-73
2022/02/09 11:19:20;;;;;;;7.88;4.70;;;9.30;87.30;;;;;;4993511;28;20053;-73
2022/02/09 11:21:50;;;;;;;6.45;4.55;;;9.30;87.00;;;;;;4992800;28;20442;-73
2022/02/09 11:24:19;;;;;;;8.00;5.07;;;9.30;87.00;;;;;;4993402;28;20018;-74
2022/02/09 11:27:11;;;;;;;7.45;5.03;;;9.30;86.70;;;;;;4988377;28;20042;-74
2022/02/09 11:30:01;;;;;;;8.70;4.75;;;9.30;86.80;;;;;;4991575;28;20028;-73
2022/02/09 11:32:32;;;;;;;6.57;4.68;;;9.30;87.20;;;;;;4992668;28;20485;-74
2022/02/09 11:37:43;;;;;;;8.10;5.40;;;9.20;87.40;;;;;;4993640;28;20374;-73
2022/02/09 11:49:13;;;;;;;8.05;4.47;;;9.20;87.10;;;;;;4988121;28;20053;-74
2022/02/09 11:55:22;;;;;;;9.32;5.13;;;9.10;87.30;;;;;;4959740;23;20067;-85
2022/02/09 12:09:50;;;;;;;5.70;3.85;;;9.10;87.30;;;;;;4940780;29;20039;-86
2022/02/09 12:12:22;;;;;;;8.23;4.53;;;9.20;87.00;;;;;;4930525;29;20050;-86
2022/02/09 12:17:50;;;;;;;5.47;3.95;;;9.20;87.30;;;;;;4932233;29;20499;-85
2022/02/09 12:20:24;;;;;;;5.35;3.60;;;9.20;87.00;;;;;;4935884;29;20034;-85
2022/02/09 12:23:13;;;;;;;7.43;4.05;;;9.30;86.90;;;;;;4934130;29;20031;-85
2022/02/09 12:25:41;;;;;;;6.18;3.85;;;9.30;86.90;;;;;;4930665;29;20032;-85
2022/02/09 12:28:13;;;;;;;5.35;3.58;;;9.40;86.40;;;;;;4932441;29;20099;-85
2022/02/09 12:30:39;;;;;;;8.25;3.92;;;9.30;86.80;;;;;;4950253;29;20035;-85
2022/02/09 12:33:04;;;;;;;5.60;3.22;;;9.30;86.90;;;;;;4930438;29;20028;-85
2022/02/09 12:35:30;;;;;;;5.28;3.47;;;9.30;86.90;;;;;;4932212;29;20046;-85
2022/02/09 12:37:56;;;;;;;5.97;3.50;;;9.30;87.10;;;;;;4924163;29;20108;-85
2022/02/09 12:40:23;;;;;;;7.38;3.70;;;9.30;86.70;;;;;;4934068;29;20024;-85
2022/02/09 12:42:51;;;;;;;8.60;3.88;;;9.40;87.10;;;;;;4948567;28;20506;-85
2022/02/09 12:45:22;;;;;;;5.93;3.65;;;9.40;87.20;;;;;;4934351;29;20035;-85
2022/02/09 12:47:49;;;;;;;7.00;3.88;;;9.40;87.00;;;;;;4921116;29;20038;-85
2022/02/09 12:50:20;;;;;;;4.82;3.03;;;9.40;87.00;;;;;;4935812;29;20488;-85
2022/02/09 12:52:47;;;;;;;9.50;4.22;;;9.30;87.50;;;;;;4931314;29;20036;-85
2022/02/09 12:55:24;;;;;;;5.65;3.47;;;9.30;88.00;;;;;;4940751;29;20080;-85
2022/02/09 12:57:52;;;;;;;4.47;2.95;;;9.20;88.20;;;;;;4927302;29;20369;-86
2022/02/09 13:00:28;;;;;;;5.47;3.53;;;9.30;88.40;;;;;;4931212;29;20055;-85
2022/02/09 13:02:59;;;;;;;7.40;3.53;;;9.30;88.60;;;;;;4939100;28;20480;-85
2022/02/09 13:05:26;;;;;;;4.20;3.10;;;9.20;88.60;;;;;;4925993;29;20049;-85
2022/02/09 13:07:57;;;;;;;5.57;3.33;;;9.10;88.70;;;;;;4921207;29;20040;-85
2022/02/09 13:10:28;;;;;;;6.03;3.42;;;9.10;89.10;;;;;;4924773;29;20515;-85
2022/02/09 13:12:56;;;;;;;;;;;9.10;89.50;;;;;;4925599;29;20035;-85
2022/02/09 13:15:29;;;;;;;6.90;3.67;;;9.10;89.80;;;;;;4927945;29;19977;-85
2022/02/09 13:23:37;;;;;;;6.65;2.85;;;9.00;90.00;;;;;;4923616;29;20030;-85
2022/02/09 13:51:50;;;;;;;6.15;3.42;;;9.00;90.20;;;;;;4941554;28;20042;-85
2022/02/09 13:52:43;;;;;;;8.07;5.53;;;8.70;92.90;;;;;;4929494;29;20034;-86
2022/02/09 14:03:20;;;;;;;7.53;5.70;;;8.60;93.50;;;;;;4942147;29;20393;-85
2022/02/09 14:11:13;;;;;;;10.02;6.35;;;8.60;93.70;;;;;;4942049;29;20031;-86
2022/02/09 14:35:07;;;;;;;14.50;8.48;;;8.40;95.10;;;;;;4924737;29;20039;-86
2022/02/09 14:51:31;;;;;;;13.05;9.73;;;8.30;96.00;;;;;;4935955;29;20035;-85
2022/02/09 14:54:01;;;;;;;;;;;8.30;96.10;;;;;;4927025;29;20040;-86
2022/02/09 14:56:47;;;;;;;12.55;9.15;;;8.30;96.20;;;;;;4923394;29;20287;-85
2022/02/09 14:59:20;;;;;;;13.23;9.00;;;8.20;96.30;;;;;;4926985;29;20032;-85
2022/02/09 15:01:55;;;;;;;13.82;10.40;;;8.30;96.30;;;;;;4960286;28;20501;-85
2022/02/09 15:04:31;;;;;;;15.77;10.75;;;8.20;96.50;;;;;;4927414;29;20024;-85
2022/02/09 15:09:41;;;;;;;13.65;10.38;;;8.20;96.60;;;;;;4939415;28;20059;-85
2022/02/09 15:22:37;;;;;;;14.55;10.15;;;8.10;96.90;;;;;;4931146;29;20031;-86
2022/02/09 15:25:11;;;;;;;15.75;12.07;;;8.10;97.00;;;;;;4931639;29;20078;-86
2022/02/09 15:27:37;;;;;;;14.90;11.07;;;8.10;97.00;;;;;;4937139;29;20094;-86
2022/02/09 15:30:03;;;;;;;14.20;10.43;;;8.10;97.10;;;;;;4938852;29;20031;-86
2022/02/09 15:32:34;;;;;;;15.50;10.32;;;8.10;97.10;;;;;;4929870;29;20031;-86
2022/02/09 15:35:07;;;;;;;;;;;8.10;97.10;;;;;;4925410;29;20087;-86
2022/02/09 15:40:06;;;;;;;14.45;9.95;;;8.10;97.20;;;;;;4922276;29;20026;-85
2022/02/09 16:09:34;;;;;;;17.23;10.38;;;8.10;97.30;;;;;;4933268;29;20055;-85
2022/02/09 16:18:22;;;;;;;17.17;11.32;;;8.10;97.40;;;;;;4925098;29;20527;-85
2022/02/09 16:23:14;;;;;;;15.50;11.25;;;8.10;97.40;;;;;;4935068;29;20043;-85
2022/02/09 16:47:03;;;;;;;17.50;11.45;;;8.10;97.50;;;;;;4924176;28;20032;-85
2022/02/09 16:49:33;;;;;;;16.08;10.60;;;8.10;97.50;;;;;;4949179;28;20108;-85
2022/02/09 16:52:15;;;;;;;16.45;11.35;;;8.10;97.60;;;;;;4936811;29;20476;-85
2022/02/09 17:08:24;;;;;;;18.77;11.30;;;8.10;97.50;;;;;;4941313;29;20032;-85
2022/02/09 17:21:23;;;;;;;12.25;6.22;;;8.00;97.70;;;;;;4935540;29;20054;-85
2022/02/09 17:23:51;;;;;;;10.65;6.45;;;7.80;97.50;;;;;;4940945;29;20204;-86
2022/02/09 17:26:17;;;;;;;8.65;4.60;;;7.80;97.60;;;;;;4926082;29;20412;-86
2022/02/09 17:28:44;;;;;;;6.70;4.18;;;7.70;97.50;;;;;;4941162;29;21960;-85
2022/02/09 17:33:58;;;;;;;9.38;4.43;;;7.60;97.50;;;;;;4936063;29;20024;-86
2022/02/09 17:37:02;;;;;;;10.15;4.07;;;7.60;97.50;;;;;;4935403;29;20073;-85
2022/02/09 17:55:54;;;;;;;15.77;6.40;;;7.40;97.50;;;;;;4935110;29;20418;-85
2022/02/09 17:58:26;;;;;;;14.18;5.15;;;7.40;97.50;;;;;;4930235;29;20020;-85
2022/02/09 18:00:53;;;;;;;17.65;6.28;;;7.40;97.50;;;;;;4933098;29;20115;-86
2022/02/09 18:03:19;;;;;;;17.27;5.72;;;7.40;97.40;;;;;;4919689;29;20028;-85
2022/02/09 18:05:51;;;;;;;14.32;5.57;;;7.30;97.40;;;;;;4916503;29;20100;-85
2022/02/09 18:08:29;;;;;;;18.92;5.85;;;7.30;97.40;;;;;;4929857;29;20090;-85
2022/02/09 18:16:11;;;;;;;21.92;5.70;;;7.30;97.30;;;;;;4944500;29;20027;-85
2022/02/09 18:25:14;;;;;;;14.77;5.85;;;7.30;97.30;;;;;;4947405;28;20043;-85
2022/02/09 18:29:56;;;;;;;19.25;7.13;;;7.30;97.00;;;;;;4926083;29;20074;-86
2022/02/09 18:37:46;;;;;;;16.02;6.18;;;7.30;96.90;;;;;;4930252;29;20020;-85
2022/02/09 18:41:18;;;;;;;17.05;5.80;;;7.30;96.90;;;;;;4921030;29;20428;-86
2022/02/09 18:43:14;;;;;;;;;;;7.30;96.80;;;;;;4929990;29;20091;-85
2022/02/09 19:17:34;;;;;;;22.38;8.52;;;7.20;96.80;;;;;;4924641;29;20123;-85
2022/02/09 19:28:55;;;;;;;22.80;10.48;;;7.20;97.00;;;;;;4923010;29;20055;-86
2022/02/09 19:30:50;;;;;;;20.35;10.23;;;7.20;97.10;;;;;;4936091;29;20024;-86
2022/02/09 19:47:04;;;;;;;22.30;9.85;;;7.20;97.20;;;;;;4922837;29;20489;-85
2022/02/09 19:49:47;;;;;;;25.23;10.05;;;7.20;97.20;;;;;;4943264;28;20124;-85
2022/02/09 19:57:23;;;;;;;25.67;10.55;;;7.10;97.30;;;;;;4923422;29;20027;-85
2022/02/09 19:59:50;;;;;;;23.02;10.10;;;7.10;97.30;;;;;;4931764;29;20035;-85
2022/02/09 20:02:16;;;;;;;20.05;10.25;;;7.20;97.30;;;;;;4931122;29;20028;-85
2022/02/09 20:04:42;;;;;;;21.73;10.63;;;7.20;97.30;;;;;;4933185;29;20484;-85
2022/02/09 20:07:08;;;;;;;22.48;11.48;;;7.10;97.30;;;;;;4944605;28;20200;-85
2022/02/09 20:09:35;;;;;;;23.15;10.13;;;7.10;97.30;;;;;;4934209;29;20071;-85
2022/02/09 20:12:00;;;;;;;22.98;11.30;;;7.10;97.20;;;;;;4924947;29;20032;-85
2022/02/09 20:14:27;;;;;;;26.92;11.07;;;7.10;97.20;;;;;;4932715;29;20036;-86
2022/02/09 20:16:53;;;;;;;23.88;11.10;;;7.10;97.20;;;;;;4931392;29;20395;-84
2022/02/09 20:19:18;;;;;;;22.15;10.77;;;7.10;97.20;;;;;;4922663;29;20107;-85
2022/02/09 20:21:44;;;;;;;20.23;10.25;;;7.10;97.20;;;;;;4926120;29;20032;-85
2022/02/09 20:24:14;;;;;;;25.13;11.13;;;7.00;97.20;;;;;;4936157;28;20036;-86
2022/02/09 20:26:40;;;;;;;26.05;11.48;;;7.00;97.20;;;;;;4931917;29;20035;-85
2022/02/09 20:29:17;;;;;;;24.08;10.77;;;6.90;97.20;;;;;;4935934;29;20032;-85
2022/02/09 20:31:52;;;;;;;30.08;12.35;;;6.90;97.20;;;;;;4935706;28;20036;-85
2022/02/09 20:34:24;;;;;;;29.25;12.05;;;6.90;97.30;;;;;;4947577;28;20035;-85
2022/02/09 20:36:50;;;;;;;24.20;11.68;;;6.80;97.20;;;;;;4930812;29;20028;-84
2022/02/09 20:39:21;;;;;;;30.13;12.65;;;6.80;97.30;;;;;;4925076;29;20047;-84
2022/02/09 20:41:47;;;;;;;26.13;12.10;;;6.90;97.30;;;;;;4930201;29;20036;-84
2022/02/09 20:44:35;;;;;;;29.75;12.63;;;6.80;97.30;;;;;;4933682;29;20032;-84
2022/02/09 20:47:00;;;;;;;30.83;12.75;;;6.80;97.30;;;;;;4939670;28;20043;-84
2022/02/09 20:49:26;;;;;;;33.78;13.55;;;6.80;97.30;;;;;;4932571;29;20329;-85
2022/02/09 20:51:52;;;;;;;30.92;11.57;;;6.80;97.30;;;;;;4927460;29;20083;-84
2022/02/09 20:54:18;;;;;;;28.52;12.73;;;6.70;97.30;;;;;;4928679;29;20036;-84
2022/02/09 20:56:43;;;;;;;33.38;12.90;;;6.80;97.40;;;;;;4925125;29;20062;-84
2022/02/09 20:59:12;;;;;;;32.58;12.80;;;6.80;97.40;;;;;;4951779;28;20034;-84
2022/02/09 21:01:46;;;;;;;32.75;12.32;;;6.80;97.40;;;;;;4922392;29;20059;-84
2022/02/09 21:04:15;;;;;;;31.35;13.23;;;6.80;97.30;;;;;;4921525;29;20023;-84
2022/02/09 21:09:41;;;;;;;33.63;13.88;;;6.80;97.30;;;;;;4924898;29;20046;-84
2022/02/09 21:17:58;;;;;;;28.58;13.02;;;6.80;97.40;;;;;;4929423;29;20051;-84
2022/02/09 21:44:45;;;;;;;36.28;13.60;;;6.60;97.40;;;;;;4926742;29;20126;-86
2022/02/09 21:54:58;;;;;;;46.95;14.30;;;6.20;97.50;;;;;;4928641;29;20059;-85
2022/02/09 22:29:03;;;;;;;69.50;17.52;;;5.90;97.70;;;;;;4925588;29;20036;-87
2022/02/09 22:31:55;;;;;;;56.33;16.75;;;5.90;97.80;;;;;;4920353;29;20046;-86
2022/02/09 22:45:46;;;;;;;69.35;18.15;;;5.70;97.90;;;;;;4921363;29;20984;-86
2022/02/09 22:55:50;;;;;;;64.82;16.73;;;5.20;97.80;;;;;;4923018;29;20125;-86
2022/02/09 22:58:16;;;;;;;73.25;15.88;;;5.20;97.90;;;;;;4953270;28;20047;-86
2022/02/09 23:00:50;;;;;;;81.32;17.20;;;5.20;97.90;;;;;;4939307;28;20053;-86
2022/02/09 23:03:23;;;;;;;79.78;16.20;;;5.10;97.90;;;;;;4932285;29;20023;-86
2022/02/09 23:06:09;;;;;;;70.10;16.70;;;5.10;98.10;;;;;;4935673;29;20035;-86
2022/02/09 23:13:47;;;;;;;65.88;17.35;;;5.30;98.10;;;;;;4935920;29;20492;-86
2022/02/09 23:21:47;;;;;;;76.78;19.02;;;5.50;98.10;;;;;;4923008;29;20016;-86
2022/02/09 23:27:40;;;;;;;91.78;20.08;;;5.50;98.10;;;;;;4915610;29;20043;-86
2022/02/09 23:57:49;;;;;;;126.93;26.63;;;5.90;98.20;;;;;;4934106;29;20027;-86
